Time;durP1;ratioP1;P1;durP2;ratioP2;P2;SDS_P1;SDS_P2;PMS_P1;PMS_P2;Temp;Humidity;BMP_temperature;BMP_pressure;BME280_temperature;BME280_humidity;BME280_pressure;Samples;Min_cycle;Max_cycle;Signal;HPM_P1;HPM_P2
2021/04/22 00:00:20;;;;;;;15.00;2.22;;;6.30;99.90;;;;;;6155386;23;20027;-87
2021/04/22 00:02:46;;;;;;;21.80;2.60;;;6.30;99.90;;;;;;6191381;23;20021;-86
2021/04/22 00:05:20;;;;;;;28.40;3.95;;;6.20;99.90;;;;;;6181447;23;20086;-87
2021/04/22 00:07:51;;;;;;;25.88;4.53;;;6.20;99.90;;;;;;6155820;23;20466;-87
2021/04/22 00:10:18;;;;;;;;;;;6.20;99.90;;;;;;6165428;23;20024;-87
2021/04/22 00:12:44;;;;;;;15.60;2.30;;;6.20;99.90;;;;;;6181835;23;19920;-86
2021/04/22 00:15:18;;;;;;;13.48;1.95;;;6.20;99.90;;;;;;6155212;23;20028;-86
2021/04/22 00:17:45;;;;;;;24.35;2.33;;;6.30;99.90;;;;;;6182062;23;20025;-86
2021/04/22 00:20:13;;;;;;;20.17;2.50;;;6.30;99.90;;;;;;6180924;23;20021;-86
2021/04/22 00:22:39;;;;;;;12.23;1.85;;;6.30;99.90;;;;;;6182076;23;20020;-86
2021/04/22 00:25:06;;;;;;;15.90;2.00;;;6.30;99.90;;;;;;6180855;23;20024;-85
2021/04/22 00:27:32;;;;;;;11.43;2.30;;;6.30;99.90;;;;;;6182154;23;20027;-85
2021/04/22 00:29:58;;;;;;;22.13;2.70;;;6.40;99.90;;;;;;6155464;23;20439;-85
2021/04/22 00:32:24;;;;;;;12.68;2.40;;;6.30;99.90;;;;;;6155089;23;20040;-86
2021/04/22 00:34:49;;;;;;;13.95;2.05;;;6.30;99.90;;;;;;6181893;23;20021;-85
2021/04/22 00:37:15;;;;;;;15.30;3.80;;;6.30;99.90;;;;;;6180581;23;20017;-86
2021/04/22 00:39:41;;;;;;;20.27;2.53;;;6.30;99.90;;;;;;6155461;23;20009;-86
2021/04/22 00:42:07;;;;;;;17.17;2.42;;;6.20;99.90;;;;;;6154853;23;20017;-86
2021/04/22 00:44:33;;;;;;;26.10;2.75;;;6.10;99.90;;;;;;6131103;23;20071;-86
2021/04/22 00:47:00;;;;;;;22.60;3.72;;;6.00;99.90;;;;;;6131150;23;20339;-86
2021/04/22 00:49:26;;;;;;;20.13;2.70;;;5.90;99.90;;;;;;6154144;23;20280;-86
2021/04/22 00:51:53;;;;;;;20.33;2.78;;;5.90;99.90;;;;;;6155431;23;20565;-86
2021/04/22 00:54:20;;;;;;;16.95;2.53;;;5.90;99.90;;;;;;6154671;23;20451;-86
2021/04/22 00:56:47;;;;;;;29.33;3.92;;;5.90;99.90;;;;;;6181852;23;20375;-86
2021/04/22 00:59:12;;;;;;;19.23;2.97;;;5.80;99.90;;;;;;6180892;23;20466;-86
2021/04/22 01:01:38;;;;;;;17.10;2.35;;;5.80;99.90;;;;;;6181890;23;20093;-87
2021/04/22 01:04:05;;;;;;;31.85;3.63;;;5.80;99.90;;;;;;6130733;23;20107;-85
2021/04/22 01:06:31;;;;;;;13.88;2.78;;;5.80;99.90;;;;;;6154817;23;20457;-86
2021/04/22 01:08:57;;;;;;;20.27;2.78;;;5.80;99.90;;;;;;6181439;23;20229;-86
2021/04/22 01:11:29;;;;;;;17.67;3.03;;;5.80;99.90;;;;;;6180681;23;20439;-87
2021/04/22 01:13:56;;;;;;;18.65;3.17;;;5.90;99.90;;;;;;6191784;23;20075;-87
2021/04/22 01:16:21;;;;;;;10.75;2.00;;;6.00;99.90;;;;;;6180766;23;20017;-86
2021/04/22 01:18:47;;;;;;;25.08;3.92;;;6.00;99.90;;;;;;6131200;23;20021;-86
2021/04/22 01:21:25;;;;;;;13.48;3.35;;;6.00;99.90;;;;;;6180441;23;20021;-87
2021/04/22 01:23:52;;;;;;;15.43;2.80;;;6.00;99.90;;;;;;6164987;23;20017;-86
2021/04/22 01:26:23;;;;;;;19.15;2.70;;;6.10;99.90;;;;;;6154132;23;20021;-86
2021/04/22 01:28:49;;;;;;;15.02;2.80;;;6.10;99.90;;;;;;6181494;23;20486;-86
2021/04/22 01:31:15;;;;;;;13.65;2.75;;;6.20;99.90;;;;;;6129387;23;20017;-86
2021/04/22 01:33:42;;;;;;;17.85;3.17;;;6.30;99.90;;;;;;6180671;23;20017;-86
2021/04/22 01:36:09;;;;;;;11.02;2.15;;;6.30;99.90;;;;;;6180655;23;20070;-85
2021/04/22 01:38:36;;;;;;;11.60;2.33;;;6.20;99.90;;;;;;6155218;23;20103;-86
2021/04/22 01:41:03;;;;;;;17.65;2.83;;;6.20;99.90;;;;;;6181505;23;20024;-86
2021/04/22 01:43:30;;;;;;;14.77;2.30;;;6.20;99.90;;;;;;6180172;23;20017;-86
2021/04/22 01:45:56;;;;;;;20.98;3.92;;;6.20;99.90;;;;;;6181476;23;20096;-86
2021/04/22 01:48:23;;;;;;;15.05;2.78;;;6.20;99.90;;;;;;6153715;23;20485;-86
2021/04/22 01:50:49;;;;;;;20.83;2.95;;;6.30;99.90;;;;;;6181445;23;20039;-85
2021/04/22 01:53:15;;;;;;;24.33;4.43;;;6.20;99.90;;;;;;6180531;23;20017;-86
2021/04/22 01:55:48;;;;;;;30.63;4.38;;;6.20;99.90;;;;;;6155125;23;20021;-85
2021/04/22 01:58:17;;;;;;;17.33;3.40;;;6.20;99.90;;;;;;6180297;23;20092;-86
2021/04/22 02:01:03;;;;;;;13.57;3.20;;;6.20;99.90;;;;;;6154336;23;20317;-85
2021/04/22 02:03:31;;;;;;;11.25;3.10;;;6.20;99.90;;;;;;6153334;23;20028;-85
2021/04/22 02:05:58;;;;;;;20.95;3.10;;;6.20;99.90;;;;;;6181303;23;20017;-85
2021/04/22 02:08:24;;;;;;;20.60;3.40;;;6.20;99.90;;;;;;6179763;23;20446;-86
2021/04/22 02:10:50;;;;;;;19.20;3.00;;;6.20;99.90;;;;;;6130681;23;20063;-84
2021/04/22 02:13:18;;;;;;;18.52;5.47;;;6.20;99.90;;;;;;6154015;23;20147;-85
2021/04/22 02:15:46;;;;;;;29.35;3.65;;;6.20;99.90;;;;;;6154508;23;20032;-86
2021/04/22 02:18:14;;;;;;;;;;;6.20;99.90;;;;;;6190614;23;20021;-87
2021/04/22 02:20:41;;;;;;;17.80;2.72;;;6.20;99.90;;;;;;6181061;23;19919;-87
2021/04/22 02:23:11;;;;;;;19.88;3.95;;;6.20;99.90;;;;;;6181215;23;20021;-88
2021/04/22 02:25:36;;;;;;;19.05;2.63;;;6.20;99.90;;;;;;6180388;23;20210;-86
2021/04/22 02:28:02;;;;;;;16.48;3.08;;;6.30;99.90;;;;;;6154881;23;20383;-86
2021/04/22 02:30:31;;;;;;;29.00;3.70;;;6.20;99.90;;;;;;6153722;23;20032;-86
2021/04/22 02:32:59;;;;;;;18.98;3.40;;;6.20;99.90;;;;;;6180973;23;20024;-85
2021/04/22 02:35:32;;;;;;;18.50;2.80;;;6.20;99.90;;;;;;6179789;23;20056;-85
2021/04/22 02:37:59;;;;;;;13.93;1.60;;;6.20;99.90;;;;;;6180632;23;20103;-86
2021/04/22 02:40:28;;;;;;;19.48;3.10;;;6.30;99.90;;;;;;6179970;23;20136;-86
2021/04/22 02:42:55;;;;;;;14.23;2.70;;;6.40;99.90;;;;;;6154657;23;20024;-86
2021/04/22 02:45:36;;;;;;;30.25;3.20;;;6.30;99.90;;;;;;6180128;23;20092;-86
2021/04/22 02:48:02;;;;;;;;;;;6.40;99.90;;;;;;6190962;23;20041;-86
2021/04/22 02:50:32;;;;;;;15.13;2.65;;;6.40;99.90;;;;;;6154029;23;20385;-86
2021/04/22 02:52:59;;;;;;;17.92;3.25;;;6.40;99.90;;;;;;6163990;23;20068;-86
2021/04/22 02:55:25;;;;;;;19.73;2.83;;;6.40;99.90;;;;;;6180053;23;20027;-87
2021/04/22 02:57:51;;;;;;;26.73;2.90;;;6.40;99.90;;;;;;6181069;23;20100;-87
2021/04/22 03:00:20;;;;;;;20.27;3.55;;;6.50;99.90;;;;;;6180116;23;20044;-87
2021/04/22 03:02:48;;;;;;;25.60;4.28;;;6.50;99.90;;;;;;6154657;23;20025;-86
2021/04/22 03:05:16;;;;;;;20.50;3.70;;;6.40;99.90;;;;;;6153942;23;20021;-85
2021/04/22 03:07:44;;;;;;;21.65;3.10;;;6.50;99.90;;;;;;6181191;23;20100;-86
2021/04/22 03:10:12;;;;;;;13.45;2.25;;;6.50;99.90;;;;;;6154678;23;20021;-87
2021/04/22 03:12:38;;;;;;;11.68;2.08;;;6.50;99.90;;;;;;6180441;23;20017;-86
2021/04/22 03:15:06;;;;;;;12.15;2.13;;;6.50;99.90;;;;;;6132533;23;20072;-86
2021/04/22 03:17:35;;;;;;;14.10;2.70;;;6.50;99.90;;;;;;6183019;23;20009;-87
2021/04/22 03:20:04;;;;;;;18.20;2.17;;;6.50;99.90;;;;;;6182688;23;20048;-86
2021/04/22 03:22:32;;;;;;;26.02;3.85;;;6.50;99.90;;;;;;6181892;23;20017;-87
2021/04/22 03:25:05;;;;;;;31.13;4.60;;;6.30;99.90;;;;;;6157757;23;20873;-86
2021/04/22 03:27:31;;;;;;;35.63;4.35;;;6.30;99.90;;;;;;6181862;23;20024;-86
2021/04/22 03:29:57;;;;;;;18.27;3.05;;;6.20;99.90;;;;;;6182453;23;20021;-87
2021/04/22 03:32:24;;;;;;;19.60;3.28;;;6.20;99.90;;;;;;6155447;23;20067;-87
2021/04/22 03:34:50;;;;;;;19.08;3.67;;;6.20;99.90;;;;;;6171783;23;20024;-86
2021/04/22 03:37:15;;;;;;;15.98;2.58;;;6.30;99.90;;;;;;6156142;23;20428;-85
2021/04/22 03:39:41;;;;;;;26.10;2.97;;;6.20;99.90;;;;;;6182018;23;20021;-87
2021/04/22 03:42:07;;;;;;;18.15;2.60;;;6.20;99.90;;;;;;6181521;23;20108;-88
2021/04/22 03:44:34;;;;;;;21.17;2.50;;;6.20;99.90;;;;;;6179969;23;20049;-86
2021/04/22 03:47:00;;;;;;;17.50;3.28;;;6.20;99.90;;;;;;6180623;23;20399;-85
2021/04/22 03:49:26;;;;;;;17.73;3.05;;;6.20;99.90;;;;;;6181935;23;20017;-86
2021/04/22 03:51:52;;;;;;;14.90;2.90;;;6.20;99.90;;;;;;6181055;23;20021;-86
2021/04/22 03:54:18;;;;;;;17.60;2.25;;;6.20;99.90;;;;;;6181776;23;20052;-85
2021/04/22 03:56:44;;;;;;;20.63;2.67;;;6.30;99.90;;;;;;6181884;23;20028;-86
2021/04/22 03:59:11;;;;;;;4.35;1.27;;;6.30;99.90;;;;;;6182743;23;20088;-86
2021/04/22 04:01:36;;;;;;;18.35;2.80;;;6.30;99.90;;;;;;6181234;23;20286;-86
2021/04/22 04:04:03;;;;;;;11.75;2.53;;;6.30;99.90;;;;;;6181871;23;20754;-86
2021/04/22 04:06:29;;;;;;;15.50;2.17;;;6.40;99.90;;;;;;6181311;23;20335;-86
2021/04/22 04:08:54;;;;;;;26.08;2.75;;;6.40;99.90;;;;;;6180812;23;20017;-86
2021/04/22 04:11:21;;;;;;;18.67;2.75;;;6.40;99.90;;;;;;6181550;23;20044;-85
2021/04/22 04:13:46;;;;;;;22.67;2.85;;;6.40;99.90;;;;;;6181176;23;20505;-86
2021/04/22 04:16:12;;;;;;;17.20;2.28;;;6.50;99.90;;;;;;6180689;23;20044;-85
2021/04/22 04:18:38;;;;;;;25.13;4.47;;;6.50;99.90;;;;;;6179890;23;20017;-86
2021/04/22 04:21:04;;;;;;;20.00;3.47;;;6.50;99.90;;;;;;6180691;23;20021;-87
2021/04/22 04:23:30;;;;;;;13.60;2.55;;;6.50;99.90;;;;;;6181578;23;20017;-87
2021/04/22 04:25:55;;;;;;;17.05;3.42;;;6.50;99.90;;;;;;6180588;23;20765;-87
2021/04/22 04:28:21;;;;;;;14.57;2.83;;;6.40;99.90;;;;;;6181687;23;20344;-85
2021/04/22 04:30:47;;;;;;;17.98;3.65;;;6.30;99.90;;;;;;6180251;23;20079;-87
2021/04/22 04:33:13;;;;;;;17.80;3.30;;;6.40;99.90;;;;;;6181877;23;20024;-87
2021/04/22 04:35:39;;;;;;;12.52;2.17;;;6.40;99.90;;;;;;6154811;23;20024;-86
2021/04/22 04:38:06;;;;;;;23.45;3.50;;;6.40;99.90;;;;;;6180053;23;20017;-87
2021/04/22 04:40:35;;;;;;;16.08;3.45;;;6.50;99.90;;;;;;6179561;23;20100;-88
2021/04/22 04:43:01;;;;;;;24.70;2.42;;;6.60;99.90;;;;;;6182156;23;20036;-87
2021/04/22 04:45:28;;;;;;;10.10;1.98;;;6.50;99.90;;;;;;6180937;23;20120;-86
2021/04/22 04:47:55;;;;;;;4.32;1.10;;;6.50;99.90;;;;;;6181488;23;20091;-86
2021/04/22 04:50:21;;;;;;;21.65;3.03;;;6.60;99.90;;;;;;6179966;23;20091;-85
2021/04/22 04:52:47;;;;;;;23.48;2.72;;;6.50;99.90;;;;;;6180845;23;20072;-86
2021/04/22 04:55:13;;;;;;;19.25;2.75;;;6.50;99.90;;;;;;6182025;23;20032;-86
2021/04/22 04:57:40;;;;;;;4.60;1.42;;;6.50;99.90;;;;;;6154281;23;20028;-86
2021/04/22 05:00:10;;;;;;;20.25;2.70;;;6.60;99.90;;;;;;6181548;23;20108;-87
2021/04/22 05:02:36;;;;;;;21.08;2.75;;;6.50;99.90;;;;;;6180164;23;20072;-87
2021/04/22 05:05:04;;;;;;;26.92;4.15;;;6.50;99.90;;;;;;6155392;23;20455;-87
2021/04/22 05:07:30;;;;;;;27.95;2.58;;;6.50;99.90;;;;;;6180446;23;20072;-88
2021/04/22 05:09:59;;;;;;;13.90;1.48;;;6.60;99.90;;;;;;6180400;23;20078;-86
2021/04/22 05:12:26;;;;;;;16.98;2.67;;;6.70;99.90;;;;;;6179150;23;20024;-86
2021/04/22 05:14:52;;;;;;;21.65;2.95;;;6.60;99.90;;;;;;6179569;23;20032;-86
2021/04/22 05:17:24;;;;;;;18.25;2.25;;;6.60;99.90;;;;;;6180951;23;20024;-86
2021/04/22 05:19:50;;;;;;;12.18;1.60;;;6.60;99.90;;;;;;6181385;23;20024;-88
2021/04/22 05:22:16;;;;;;;19.90;3.15;;;6.60;99.90;;;;;;6179899;23;20017;-87
2021/04/22 05:24:42;;;;;;;18.05;3.58;;;6.60;99.90;;;;;;6180816;23;20467;-88
2021/04/22 05:27:08;;;;;;;23.00;3.08;;;6.60;99.90;;;;;;6181490;23;20025;-88
2021/04/22 05:29:35;;;;;;;18.80;3.30;;;6.60;99.90;;;;;;6180445;23;20083;-89
2021/04/22 05:32:01;;;;;;;22.40;2.70;;;6.70;99.90;;;;;;6181673;23;20486;-88
2021/04/22 05:34:27;;;;;;;6.28;1.38;;;6.70;99.90;;;;;;6183734;23;20104;-86
2021/04/22 05:36:54;;;;;;;10.40;2.28;;;6.70;99.90;;;;;;6130478;23;20028;-88
2021/04/22 05:39:22;;;;;;;20.77;4.43;;;6.70;99.90;;;;;;6155715;23;20025;-87
2021/04/22 05:41:49;;;;;;;22.83;3.30;;;6.70;99.90;;;;;;6180211;23;20020;-88
2021/04/22 05:44:15;;;;;;;20.35;3.30;;;6.60;99.90;;;;;;6181649;23;20457;-89
2021/04/22 05:46:42;;;;;;;16.35;1.90;;;6.70;99.90;;;;;;6154115;23;20045;-88
2021/04/22 05:49:08;;;;;;;16.98;2.78;;;6.70;99.90;;;;;;6130808;23;20451;-86
2021/04/22 05:51:35;;;;;;;21.98;2.60;;;6.70;99.90;;;;;;6180192;23;20088;-87
2021/04/22 05:54:02;;;;;;;6.85;1.50;;;6.80;99.90;;;;;;6181452;23;20013;-87
2021/04/22 05:56:28;;;;;;;16.00;2.13;;;6.80;99.90;;;;;;6129394;23;20021;-86
2021/04/22 05:58:54;;;;;;;27.45;2.92;;;6.80;99.90;;;;;;6181302;23;20097;-86
2021/04/22 06:01:20;;;;;;;20.83;4.30;;;6.90;99.90;;;;;;6155123;23;20020;-86
2021/04/22 06:03:46;;;;;;;20.27;4.07;;;6.80;99.90;;;;;;6154424;23;20084;-88
2021/04/22 06:06:12;;;;;;;12.93;2.20;;;6.90;99.90;;;;;;6180924;23;20020;-87
2021/04/22 06:08:38;;;;;;;17.90;3.33;;;6.90;99.90;;;;;;6154017;23;20343;-89
2021/04/22 06:11:07;;;;;;;24.15;3.10;;;6.90;99.90;;;;;;6155570;23;20032;-87
2021/04/22 06:13:33;;;;;;;19.85;2.67;;;6.90;99.90;;;;;;6180447;23;20017;-86
2021/04/22 06:15:59;;;;;;;19.73;2.35;;;6.90;99.90;;;;;;6130441;23;20024;-87
2021/04/22 06:18:25;;;;;;;11.27;1.77;;;6.90;99.90;;;;;;6181390;23;20036;-85
2021/04/22 06:20:50;;;;;;;14.18;2.88;;;7.00;99.90;;;;;;6154186;23;20020;-87
2021/04/22 06:23:16;;;;;;;15.52;2.83;;;7.00;99.90;;;;;;6181070;23;20020;-86
2021/04/22 06:25:43;;;;;;;19.23;2.65;;;7.10;99.90;;;;;;6180145;23;20013;-87
2021/04/22 06:28:09;;;;;;;16.88;2.30;;;7.00;99.90;;;;;;6155099;23;20057;-86
2021/04/22 06:30:35;;;;;;;25.60;2.70;;;7.10;99.90;;;;;;6153585;23;20017;-87
2021/04/22 06:33:01;;;;;;;12.15;1.83;;;7.10;99.90;;;;;;6180775;23;20056;-86
2021/04/22 06:35:28;;;;;;;19.60;2.38;;;7.10;99.90;;;;;;6196250;23;20385;-87
2021/04/22 06:37:54;;;;;;;13.07;2.58;;;7.20;99.90;;;;;;6180162;23;20024;-87
2021/04/22 06:40:22;;;;;;;13.07;2.97;;;7.10;99.90;;;;;;6154867;23;20095;-88
2021/04/22 06:42:48;;;;;;;12.23;2.15;;;7.20;99.90;;;;;;6179871;23;20017;-85
2021/04/22 06:45:15;;;;;;;12.70;2.28;;;7.20;99.90;;;;;;6181425;23;20063;-86
2021/04/22 06:47:47;;;;;;;29.10;3.47;;;7.20;99.90;;;;;;6179683;23;20021;-86
2021/04/22 06:50:15;;;;;;;22.52;2.60;;;7.10;99.90;;;;;;6156842;23;20033;-88
2021/04/22 06:52:41;;;;;;;17.88;2.42;;;7.20;99.90;;;;;;6181462;23;20025;-86
2021/04/22 06:55:14;;;;;;;20.35;3.15;;;7.30;99.90;;;;;;6156500;23;20040;-87
2021/04/22 06:57:40;;;;;;;19.30;3.72;;;7.30;99.90;;;;;;6165499;23;20041;-88
2021/04/22 07:00:09;;;;;;;14.25;2.58;;;7.30;99.90;;;;;;6182042;23;20020;-87
2021/04/22 07:02:36;;;;;;;23.00;3.30;;;7.30;99.90;;;;;;6155125;23;20025;-86
2021/04/22 07:05:04;;;;;;;4.22;1.17;;;7.40;99.90;;;;;;6156903;23;20076;-87
2021/04/22 07:07:30;;;;;;;10.13;2.22;;;7.30;99.90;;;;;;6182666;23;20039;-89
2021/04/22 07:09:56;;;;;;;12.98;2.33;;;7.40;99.90;;;;;;6182214;23;20017;-90
2021/04/22 07:12:22;;;;;;;11.43;2.28;;;7.40;99.90;;;;;;6156948;23;20040;-89
2021/04/22 07:14:47;;;;;;;14.27;2.38;;;7.50;99.90;;;;;;6181889;23;20096;-88
2021/04/22 07:17:13;;;;;;;16.08;2.67;;;7.50;99.90;;;;;;6182812;23;20024;-88
2021/04/22 07:19:59;;;;;;;17.08;2.30;;;7.50;99.90;;;;;;6160101;23;20410;-88
2021/04/22 07:22:45;;;;;;;12.63;1.88;;;7.60;99.90;;;;;;6158702;23;20088;-87
2021/04/22 07:25:12;;;;;;;11.60;2.03;;;7.60;99.90;;;;;;6156222;23;20041;-89
2021/04/22 07:27:59;;;;;;;25.27;2.28;;;7.60;99.90;;;;;;6138365;23;20023;-87
2021/04/22 07:30:25;;;;;;;11.07;2.03;;;7.70;99.90;;;;;;6155003;23;20537;-87
2021/04/22 07:32:51;;;;;;;8.10;1.58;;;7.80;99.90;;;;;;6155225;23;20016;-87
2021/04/22 07:35:19;;;;;;;11.70;2.50;;;7.90;99.90;;;;;;6156354;23;20452;-86
2021/04/22 07:37:46;;;;;;;15.63;1.83;;;8.00;99.90;;;;;;6181552;23;20103;-90
2021/04/22 07:40:17;;;;;;;15.82;3.60;;;8.10;99.90;;;;;;6182066;23;20475;-87
2021/04/22 07:42:43;;;;;;;10.43;2.40;;;8.10;99.90;;;;;;6191391;23;20045;-89
2021/04/22 07:45:09;;;;;;;12.75;2.15;;;7.90;99.90;;;;;;6181588;23;20021;-88
2021/04/22 07:47:35;;;;;;;17.40;3.28;;;7.60;99.90;;;;;;6155531;23;20466;-87
2021/04/22 07:50:01;;;;;;;10.07;2.05;;;7.60;99.90;;;;;;6180492;23;20052;-90
2021/04/22 07:52:27;;;;;;;16.45;2.75;;;7.70;99.90;;;;;;6154754;23;20037;-88
2021/04/22 07:54:53;;;;;;;15.45;2.38;;;7.90;99.90;;;;;;6154093;23;20431;-87
2021/04/22 07:57:19;;;;;;;24.60;2.90;;;8.30;99.90;;;;;;6130251;23;20071;-89
2021/04/22 07:59:45;;;;;;;17.08;2.92;;;8.40;99.90;;;;;;6180594;23;20363;-88
2021/04/22 08:02:12;;;;;;;13.35;2.90;;;8.20;99.90;;;;;;6155874;23;20024;-83
2021/04/22 08:04:39;;;;;;;7.20;2.40;;;7.90;99.90;;;;;;6180594;23;20116;-82
2021/04/22 08:07:04;;;;;;;9.27;1.65;;;7.60;99.90;;;;;;6181823;23;20045;-82
2021/04/22 08:09:31;;;;;;;6.93;1.27;;;7.50;99.90;;;;;;6155490;23;20087;-83
2021/04/22 08:11:57;;;;;;;9.13;1.75;;;7.40;99.90;;;;;;6180882;23;20013;-83
2021/04/22 08:14:23;;;;;;;7.20;2.85;;;7.40;99.90;;;;;;6155890;23;20013;-83
2021/04/22 08:16:49;;;;;;;9.48;1.83;;;7.50;99.90;;;;;;6180601;23;20092;-82
2021/04/22 08:19:15;;;;;;;8.13;1.77;;;7.50;99.90;;;;;;6181092;23;20447;-83
2021/04/22 08:21:40;;;;;;;12.93;1.60;;;7.60;99.90;;;;;;6180995;23;20032;-82
2021/04/22 08:24:07;;;;;;;18.42;2.22;;;7.80;99.90;;;;;;6181450;23;20021;-82
2021/04/22 08:26:33;;;;;;;15.73;2.85;;;7.90;99.90;;;;;;6155431;23;20025;-82
2021/04/22 08:28:58;;;;;;;13.70;2.22;;;8.00;99.90;;;;;;6181043;23;20383;-82
2021/04/22 08:31:25;;;;;;;19.15;2.45;;;8.00;99.90;;;;;;6180904;23;20021;-83
2021/04/22 08:33:54;;;;;;;17.85;2.47;;;8.00;99.90;;;;;;6180419;23;20020;-82
2021/04/22 08:36:21;;;;;;;15.27;2.15;;;8.10;99.90;;;;;;6181411;23;20059;-82
2021/04/22 08:38:48;;;;;;;14.77;2.33;;;8.10;99.90;;;;;;6180878;23;20021;-83
2021/04/22 08:41:15;;;;;;;17.20;2.28;;;8.20;99.90;;;;;;6181797;23;20068;-83
2021/04/22 08:43:41;;;;;;;22.58;3.03;;;8.10;99.90;;;;;;6177824;23;20021;-82
2021/04/22 08:46:07;;;;;;;12.80;2.22;;;8.30;99.90;;;;;;6181124;23;20064;-83
2021/04/22 08:48:36;;;;;;;11.18;1.98;;;8.50;99.90;;;;;;6181592;23;20017;-83
2021/04/22 08:51:04;;;;;;;19.58;2.65;;;8.60;99.90;;;;;;6180501;23;20013;-82
2021/04/22 08:53:34;;;;;;;4.68;1.17;;;8.60;99.90;;;;;;6181714;23;20032;-82
2021/04/22 08:56:00;;;;;;;9.15;1.90;;;8.60;99.90;;;;;;6190272;23;20021;-82
2021/04/22 08:58:26;;;;;;;11.48;2.35;;;8.50;99.90;;;;;;6181760;23;20096;-82
2021/04/22 09:00:56;;;;;;;5.35;1.20;;;8.60;99.90;;;;;;6180605;23;20013;-83
2021/04/22 09:03:23;;;;;;;8.60;1.52;;;8.60;99.90;;;;;;6180918;23;20040;-83
2021/04/22 09:05:51;;;;;;;6.32;1.23;;;8.70;99.90;;;;;;6180339;23;20451;-82
2021/04/22 09:08:19;;;;;;;10.02;1.90;;;8.80;99.90;;;;;;6181259;23;20025;-82
2021/04/22 09:10:46;;;;;;;12.45;2.50;;;8.90;99.90;;;;;;6154241;23;20436;-82
2021/04/22 09:13:17;;;;;;;15.50;1.90;;;8.90;99.90;;;;;;6181616;23;20045;-83
2021/04/22 09:15:45;;;;;;;13.82;3.05;;;8.90;99.90;;;;;;6180859;23;20088;-81
2021/04/22 09:18:14;;;;;;;13.10;2.83;;;8.90;99.90;;;;;;6155194;23;20347;-82
2021/04/22 09:20:43;;;;;;;7.50;1.00;;;8.80;99.90;;;;;;6181133;23;20040;-83
2021/04/22 09:23:21;;;;;;;8.25;2.30;;;8.70;99.90;;;;;;6181030;23;20079;-83
2021/04/22 09:26:04;;;;;;;10.68;2.05;;;8.80;99.90;;;;;;6180446;23;20017;-82
2021/04/22 09:28:36;;;;;;;9.82;2.20;;;8.90;99.90;;;;;;6191611;23;20458;-83
2021/04/22 09:31:03;;;;;;;10.40;1.80;;;9.10;99.90;;;;;;6179828;23;20021;-83
2021/04/22 09:33:30;;;;;;;12.68;2.30;;;9.00;99.90;;;;;;6181264;23;20025;-83
2021/04/22 09:36:09;;;;;;;11.90;1.40;;;8.90;99.90;;;;;;6158331;23;20024;-83
2021/04/22 09:38:36;;;;;;;11.15;2.30;;;8.80;99.90;;;;;;6181521;23;20017;-83
2021/04/22 09:41:16;;;;;;;14.25;2.10;;;9.00;99.90;;;;;;6180083;23;20016;-83
2021/04/22 09:43:42;;;;;;;13.43;2.42;;;9.10;99.90;;;;;;6181437;23;20016;-82
2021/04/22 09:46:21;;;;;;;15.68;2.70;;;9.30;99.90;;;;;;6180112;23;20905;-83
2021/04/22 09:48:48;;;;;;;18.90;2.50;;;9.40;99.90;;;;;;6180760;23;20092;-82
2021/04/22 09:51:29;;;;;;;10.27;2.33;;;9.30;99.90;;;;;;6181102;23;20435;-83
2021/04/22 09:54:15;;;;;;;16.58;2.75;;;9.50;99.90;;;;;;6190017;23;20017;-82
2021/04/22 09:56:48;;;;;;;12.10;1.90;;;9.60;99.90;;;;;;6189324;23;20024;-82
2021/04/22 09:59:20;;;;;;;15.63;2.88;;;9.50;99.90;;;;;;6180951;23;20025;-82
2021/04/22 10:01:57;;;;;;;14.88;2.10;;;9.70;99.90;;;;;;6179365;23;20025;-82
2021/04/22 10:04:37;;;;;;;14.40;2.60;;;9.90;99.90;;;;;;6191336;23;20439;-83
2021/04/22 10:07:04;;;;;;;12.47;2.63;;;10.10;99.90;;;;;;6179574;23;20036;-83
2021/04/22 10:09:35;;;;;;;16.90;2.63;;;10.00;99.90;;;;;;6180828;23;20431;-83
2021/04/22 10:12:01;;;;;;;;;;;9.70;99.90;;;;;;6190528;23;20039;-83
2021/04/22 10:14:36;;;;;;;13.77;2.35;;;9.40;99.90;;;;;;6181235;23;19920;-83
2021/04/22 10:17:20;;;;;;;3.10;0.75;;;9.30;99.90;;;;;;6178127;23;20017;-83
2021/04/22 10:20:01;;;;;;;12.93;2.33;;;9.50;99.90;;;;;;6180926;23;20017;-83
2021/04/22 10:22:35;;;;;;;13.73;2.20;;;9.50;99.90;;;;;;6187901;23;20505;-83
2021/04/22 10:25:05;;;;;;;11.25;1.38;;;9.40;99.90;;;;;;6179978;23;20024;-83
2021/04/22 10:27:31;;;;;;;10.20;1.67;;;9.40;99.90;;;;;;6180606;23;20013;-83
2021/04/22 10:29:58;;;;;;;20.52;2.33;;;9.40;99.90;;;;;;6179513;23;20044;-83
2021/04/22 10:32:25;;;;;;;10.45;1.65;;;9.60;99.90;;;;;;6180803;23;20017;-83
2021/04/22 10:34:52;;;;;;;7.30;1.38;;;9.60;99.90;;;;;;6180592;23;20029;-83
2021/04/22 10:37:20;;;;;;;17.60;2.40;;;9.60;99.90;;;;;;6154148;23;20570;-83
2021/04/22 10:39:47;;;;;;;13.95;2.35;;;9.60;99.90;;;;;;6179369;23;20024;-83
2021/04/22 10:42:17;;;;;;;21.52;2.60;;;9.60;99.90;;;;;;6179910;23;20044;-83
2021/04/22 10:44:48;;;;;;;15.50;1.85;;;9.50;99.90;;;;;;6190799;23;20024;-84
2021/04/22 10:47:16;;;;;;;14.82;3.10;;;9.50;99.90;;;;;;6188487;23;20512;-83
2021/04/22 10:49:42;;;;;;;15.80;4.03;;;9.50;99.90;;;;;;6180712;23;20013;-83
2021/04/22 10:52:08;;;;;;;17.02;2.53;;;9.50;99.90;;;;;;6180285;23;20518;-83
2021/04/22 10:54:39;;;;;;;9.88;2.40;;;9.40;99.90;;;;;;6180982;23;20494;-83
2021/04/22 10:57:06;;;;;;;;;;;9.50;99.90;;;;;;6190030;23;20049;-83
2021/04/22 10:59:34;;;;;;;13.90;1.80;;;9.50;99.90;;;;;;6179585;23;19943;-83
2021/04/22 11:02:13;;;;;;;18.23;2.42;;;9.60;99.90;;;;;;6179054;23;20017;-83
2021/04/22 11:04:38;;;;;;;10.63;2.03;;;9.50;99.90;;;;;;6190037;23;20412;-83
2021/04/22 11:07:21;;;;;;;14.20;2.80;;;9.50;99.90;;;;;;6178845;23;20088;-84
2021/04/22 11:09:52;;;;;;;7.38;2.05;;;9.60;99.90;;;;;;6189708;23;20021;-83
2021/04/22 11:12:24;;;;;;;10.00;2.30;;;9.60;99.90;;;;;;6188720;23;20017;-84
2021/04/22 11:14:52;;;;;;;13.30;2.13;;;9.50;99.90;;;;;;6180102;23;20024;-83
2021/04/22 11:17:20;;;;;;;10.73;1.92;;;9.50;99.90;;;;;;6179033;23;20028;-82
2021/04/22 11:19:48;;;;;;;15.30;2.90;;;9.60;99.90;;;;;;6180459;23;20017;-83
2021/04/22 11:22:26;;;;;;;5.97;1.20;;;9.60;99.90;;;;;;6179097;23;20021;-83
2021/04/22 11:24:58;;;;;;;10.43;1.25;;;9.60;99.90;;;;;;6180325;23;20357;-83
2021/04/22 11:27:25;;;;;;;18.40;2.65;;;9.70;99.90;;;;;;6178934;23;20211;-83
2021/04/22 11:29:59;;;;;;;10.60;1.77;;;9.60;99.90;;;;;;6180235;23;20017;-84
2021/04/22 11:32:31;;;;;;;30.58;4.18;;;9.70;99.90;;;;;;6190513;23;20024;-83
2021/04/22 11:35:18;;;;;;;20.30;2.45;;;9.60;99.90;;;;;;6179514;23;20032;-83
2021/04/22 11:37:50;;;;;;;16.42;2.63;;;9.60;99.90;;;;;;6186478;23;20033;-83
2021/04/22 11:40:34;;;;;;;18.60;3.65;;;9.80;99.90;;;;;;6191374;23;20270;-83
2021/04/22 11:43:00;;;;;;;10.93;1.92;;;9.90;99.90;;;;;;6165038;23;20021;-82
2021/04/22 11:45:31;;;;;;;15.60;2.53;;;9.80;99.90;;;;;;6182119;23;20017;-83
2021/04/22 11:48:06;;;;;;;10.95;1.77;;;9.70;99.90;;;;;;6192143;23;20440;-83
2021/04/22 11:50:42;;;;;;;11.85;2.33;;;9.70;99.90;;;;;;6191874;23;20013;-84
2021/04/22 11:53:08;;;;;;;14.85;3.35;;;9.90;99.90;;;;;;6180766;23;20024;-83
2021/04/22 11:55:38;;;;;;;10.57;1.60;;;10.00;99.90;;;;;;6155923;23;20587;-83
2021/04/22 11:58:11;;;;;;;14.05;2.10;;;10.10;99.90;;;;;;6181287;23;20027;-83
2021/04/22 12:00:40;;;;;;;21.63;3.35;;;10.20;99.90;;;;;;6191918;23;20021;-83
2021/04/22 12:03:10;;;;;;;16.52;2.42;;;10.30;99.90;;;;;;6154714;23;20084;-83
2021/04/22 12:05:37;;;;;;;12.93;2.22;;;10.10;99.90;;;;;;6191858;23;20073;-83
2021/04/22 12:08:05;;;;;;;14.23;2.88;;;10.10;99.90;;;;;;6181267;23;20020;-82
2021/04/22 12:10:35;;;;;;;14.43;2.38;;;10.20;99.90;;;;;;6181744;23;20044;-83
2021/04/22 12:13:12;;;;;;;14.40;2.13;;;10.50;99.90;;;;;;6181704;23;20064;-82
2021/04/22 12:15:42;;;;;;;9.07;2.05;;;10.50;99.90;;;;;;6191956;23;20077;-83
2021/04/22 12:18:10;;;;;;;13.07;2.20;;;10.20;99.90;;;;;;6190362;23;20305;-84
2021/04/22 12:20:39;;;;;;;15.57;2.13;;;10.10;99.90;;;;;;6182142;23;20447;-84
2021/04/22 12:23:05;;;;;;;8.27;1.52;;;10.00;99.90;;;;;;6180649;23;20048;-83
2021/04/22 12:25:31;;;;;;;13.68;2.53;;;9.90;99.90;;;;;;6181942;23;20013;-84
2021/04/22 12:28:04;;;;;;;13.80;1.95;;;10.00;99.90;;;;;;6155171;23;20466;-84
2021/04/22 12:30:45;;;;;;;13.73;2.63;;;10.00;99.90;;;;;;6191061;23;20013;-89
2021/04/22 12:33:21;;;;;;;13.20;3.05;;;10.00;99.90;;;;;;6180650;23;20108;-90
2021/04/22 12:35:58;;;;;;;14.02;2.05;;;10.00;99.90;;;;;;6190656;23;20455;-89
2021/04/22 12:38:33;;;;;;;17.35;2.25;;;9.90;99.90;;;;;;6180423;23;20015;-88
2021/04/22 12:41:06;;;;;;;12.30;2.25;;;10.00;99.90;;;;;;6181365;23;20013;-89
2021/04/22 12:43:34;;;;;;;7.68;2.28;;;9.90;99.90;;;;;;6181296;23;20383;-90
2021/04/22 12:46:29;;;;;;;14.10;2.80;;;9.80;99.90;;;;;;6181448;23;20119;-87
2021/04/22 12:49:01;;;;;;;12.02;1.50;;;10.00;99.90;;;;;;6178766;23;20021;-89
2021/04/22 12:51:39;;;;;;;10.75;1.73;;;10.10;99.90;;;;;;6190536;23;20639;-89
2021/04/22 12:54:06;;;;;;;6.30;1.25;;;10.20;99.90;;;;;;6191400;23;20028;-86